Terminal Aerodrome Forecast
Issued by NWS

Current Version | Previous Version | Text Only | Print | Product List | Glossary On
Versions: 1 2 3 4 5 6 7 8 9 10 11 12 13 14 15 16 17 18 19 20 21 22 23 24 25 26 27
000 FTUS41 KBOX 042325 TAFHYA TAF KHYA 042325Z 0500/0524 21012G22KT P6SM SKC FM050300 24013KT P6SM SKC WS020/24050KT FM051000 24012KT P6SM BKN110 FM051600 25008KT P6SM BKN045=

USA.gov is the U.S. government's official web portal to all federal, state and local government web resources and services.